Time;durP1;ratioP1;P1;durP2;ratioP2;P2;SDS_P1;SDS_P2;PMS_P1;PMS_P2;Temp;Humidity;BMP_temperature;BMP_pressure;BME280_temperature;BME280_humidity;BME280_pressure;Samples;Min_cycle;Max_cycle;Signal;HPM_P1;HPM_P2
2021/08/24 00:01:56;;;;;;;4.15;2.90;;;;;;;16.39;87.13;96605.59;127590;1093;22939;-83
2021/08/24 00:04:27;;;;;;;5.88;3.15;;;;;;;16.42;86.97;96606.84;127620;1093;26052;-83
2021/08/24 00:06:59;;;;;;;5.13;2.95;;;;;;;16.36;86.71;96608.91;127657;1093;34272;-83
2021/08/24 00:09:31;;;;;;;3.75;2.65;;;;;;;16.27;86.90;96600.09;127671;1091;23688;-83
2021/08/24 00:12:03;;;;;;;4.30;2.85;;;;;;;16.25;86.96;96607.64;127635;1093;31306;-83
2021/08/24 00:14:34;;;;;;;4.28;3.23;;;;;;;16.27;87.38;96595.52;127627;1093;24175;-83
2021/08/24 00:17:06;;;;;;;3.75;3.15;;;;;;;16.25;87.36;96594.27;127582;1092;23606;-83
2021/08/24 00:19:38;;;;;;;4.50;3.28;;;;;;;16.30;87.89;96588.75;127544;1093;24449;-83
2021/08/24 00:22:09;;;;;;;4.65;3.48;;;;;;;16.34;88.05;96589.72;127600;1093;24154;-82
2021/08/24 00:24:41;;;;;;;3.85;2.83;;;;;;;16.41;88.05;96590.01;127677;1092;24503;-83
2021/08/24 00:27:12;;;;;;;5.43;3.28;;;;;;;16.46;87.97;96595.19;127579;1093;25171;-83
2021/08/24 00:29:43;;;;;;;3.78;2.70;;;;;;;16.45;87.70;96596.30;127620;1093;31245;-83
2021/08/24 00:32:15;;;;;;;5.10;3.15;;;;;;;16.47;88.07;96598.66;127564;1093;25275;-83
2021/08/24 00:34:47;;;;;;;4.73;3.23;;;;;;;16.46;88.05;96597.87;127557;1093;24027;-83
2021/08/24 00:37:19;;;;;;;3.88;3.10;;;;;;;16.41;87.99;96584.66;127569;1092;22935;-83
2021/08/24 00:39:51;;;;;;;4.93;3.55;;;;;;;16.37;87.92;96589.08;127530;1093;25071;-82
2021/08/24 00:42:23;;;;;;;4.60;3.40;;;;;;;16.33;88.19;96599.63;127591;1093;24594;-83
2021/08/24 00:44:54;;;;;;;6.58;3.78;;;;;;;16.30;87.99;96592.21;127686;1093;23153;-82
2021/08/24 00:47:28;;;;;;;4.35;3.15;;;;;;;16.33;88.24;96590.81;127595;1093;23785;-83
2021/08/24 00:50:07;;;;;;;5.25;3.50;;;;;;;16.35;88.31;96596.64;127635;1093;24181;-83
2021/08/24 00:52:38;;;;;;;7.35;3.85;;;;;;;16.27;88.02;96594.73;127591;1093;27846;-83
2021/08/24 00:55:11;;;;;;;5.08;3.60;;;;;;;16.26;88.43;96598.52;127601;1093;23790;-83
2021/08/24 00:57:44;;;;;;;5.83;3.28;;;;;;;16.30;88.69;96599.45;127523;1093;23765;-83
2021/08/24 01:00:17;;;;;;;6.88;3.98;;;;;;;16.29;88.34;96600.55;127630;1093;25859;-82
2021/08/24 01:02:48;;;;;;;5.70;3.13;;;;;;;16.24;88.37;96595.38;127572;1093;24934;-82
2021/08/24 01:05:20;;;;;;;5.50;3.60;;;;;;;16.17;88.42;96595.03;127623;1093;22815;-83
2021/08/24 01:07:59;;;;;;;5.83;3.55;;;;;;;16.17;88.76;96592.36;127679;1092;25443;-83
2021/08/24 01:10:41;;;;;;;6.48;4.35;;;;;;;16.12;88.43;96595.20;127745;1093;26922;-83
2021/08/24 01:13:35;;;;;;;5.38;4.00;;;;;;;16.10;88.65;96592.84;127596;1093;30131;-82
2021/08/24 01:16:17;;;;;;;7.08;4.53;;;;;;;16.05;88.85;96587.66;127572;1093;25362;-83
2021/08/24 01:19:04;;;;;;;5.90;4.65;;;;;;;16.05;88.99;96587.66;127567;1093;25071;-82
2021/08/24 01:22:05;;;;;;;5.48;4.23;;;;;;;16.08;89.05;96586.23;127616;1093;23461;-82
2021/08/24 01:24:41;;;;;;;6.20;4.23;;;;;;;16.13;89.43;96592.21;127652;1093;36515;-82
2021/08/24 01:27:21;;;;;;;7.08;4.28;;;;;;;16.20;89.34;96594.44;127679;1093;28400;-83
2021/08/24 01:30:22;;;;;;;6.95;4.40;;;;;;;16.25;89.42;96587.03;127587;1093;30391;-82
2021/08/24 01:33:07;;;;;;;5.28;3.83;;;;;;;16.33;89.45;96593.49;127526;1093;24424;-83
2021/08/24 01:36:01;;;;;;;6.18;3.73;;;;;;;16.40;89.40;96593.79;127621;1093;23725;-82
2021/08/24 01:38:34;;;;;;;6.60;3.98;;;;;;;16.42;89.21;96598.83;127715;1093;37611;-83
2021/08/24 01:41:12;;;;;;;6.28;4.18;;;;;;;16.36;89.15;96589.39;127665;1093;23945;-83
2021/08/24 01:43:59;;;;;;;4.53;3.70;;;;;;;16.36;89.00;96589.39;127585;1093;25848;-84
2021/08/24 01:46:42;;;;;;;5.70;3.95;;;;;;;16.36;88.89;96589.39;127652;1093;25735;-82
2021/08/24 01:49:18;;;;;;;5.48;4.33;;;;;;;16.35;88.90;96580.58;127613;1093;27364;-83
2021/08/24 01:51:55;;;;;;;5.30;4.20;;;;;;;16.37;88.87;96589.08;127552;1093;25890;-82
2021/08/24 01:54:32;;;;;;;5.33;3.83;;;;;;;16.32;88.96;96578.52;127575;1093;23573;-82
2021/08/24 01:57:06;;;;;;;7.30;4.25;;;;;;;16.28;88.91;96583.72;127543;1093;40924;-82
2021/08/24 01:59:42;;;;;;;6.03;4.43;;;;;;;16.29;89.14;96579.94;127659;1093;23572;-82
2021/08/24 02:02:17;;;;;;;8.57;4.80;;;;;;;16.30;88.78;96583.40;127588;1093;22809;-82
2021/08/24 02:04:54;;;;;;;7.75;4.95;;;;;;;16.29;88.92;96571.91;127584;1093;34468;-82
2021/08/24 02:07:29;;;;;;;6.65;4.60;;;;;;;16.32;88.92;96576.63;127695;1093;22829;-82
2021/08/24 02:10:06;;;;;;;4.95;4.03;;;;;;;16.35;89.09;96583.27;127734;1093;23363;-83
2021/08/24 02:12:41;;;;;;;8.18;5.95;;;;;;;16.32;88.93;96573.16;127558;1093;29114;-82
2021/08/24 02:15:15;;;;;;;10.60;7.95;;;;;;;16.31;89.01;96575.05;127578;1093;24444;-83
2021/08/24 02:17:49;;;;;;;11.38;8.25;;;;;;;16.30;88.98;96572.70;127632;1093;23668;-83
2021/08/24 02:20:27;;;;;;;11.95;8.53;;;;;;;16.32;88.72;96554.44;127535;1093;26321;-82
2021/08/24 02:23:04;;;;;;;10.55;7.90;;;;;;;16.29;88.80;96555.86;127655;1093;22873;-83
2021/08/24 02:25:41;;;;;;;12.13;8.38;;;;;;;16.25;88.84;96564.84;127540;1093;23732;-82
2021/08/24 02:28:16;;;;;;;12.75;9.25;;;;;;;16.22;88.79;96568.16;127609;1093;28346;-83
2021/08/24 02:30:54;;;;;;;13.73;8.55;;;;;;;16.19;89.13;96561.55;127603;1093;30392;-82
2021/08/24 02:33:33;;;;;;;11.83;8.58;;;;;;;16.20;89.23;96563.13;127600;1093;22806;-82
2021/08/24 02:36:09;;;;;;;11.18;8.05;;;;;;;16.19;89.11;96558.88;127582;1093;25330;-82
2021/08/24 02:38:45;;;;;;;9.65;7.03;;;;;;;16.22;89.19;96570.83;127690;1092;23696;-83
2021/08/24 02:41:22;;;;;;;10.53;8.35;;;;;;;16.24;89.05;96572.08;127597;1093;25890;-83
2021/08/24 02:44:01;;;;;;;13.93;10.28;;;;;;;16.24;89.35;96564.06;127553;1093;23969;-83
2021/08/24 02:46:36;;;;;;;15.50;11.38;;;;;;;16.22;89.43;96562.80;127597;1093;29023;-83
2021/08/24 02:49:10;;;;;;;12.08;8.70;;;;;;;16.20;89.44;96563.13;127589;1093;26886;-83
2021/08/24 02:51:43;;;;;;;13.55;10.10;;;;;;;16.18;89.44;96557.27;127605;1093;23668;-82
2021/08/24 02:54:17;;;;;;;12.23;9.55;;;;;;;16.16;89.75;96561.38;127574;1092;22807;-83
2021/08/24 02:56:49;;;;;;;14.50;11.37;;;;;;;16.13;89.89;96562.00;127563;1093;25744;-82
2021/08/24 02:59:20;;;;;;;15.80;11.50;;;;;;;16.14;89.92;96553.66;127646;1091;24935;-81
2021/08/24 03:01:52;;;;;;;15.80;11.75;;;;;;;16.13;90.01;96560.12;127587;1093;23446;-82
2021/08/24 03:04:23;;;;;;;16.13;11.63;;;;;;;16.14;90.17;96563.58;127585;1092;24336;-83
2021/08/24 03:07:01;;;;;;;15.85;10.85;;;;;;;16.11;90.11;96553.52;127673;1093;23004;-84
2021/08/24 03:09:35;;;;;;;14.23;10.83;;;;;;;16.10;90.39;96554.62;127721;1093;22940;-83
2021/08/24 03:12:19;;;;;;;13.73;11.05;;;;;;;16.08;90.75;96562.95;127672;1093;27512;-82
2021/08/24 03:14:57;;;;;;;17.58;12.43;;;;;;;16.08;90.42;96560.28;127709;1093;23543;-83
2021/08/24 03:17:34;;;;;;;13.35;10.13;;;;;;;16.09;90.70;96555.72;127623;1093;27028;-84
2021/08/24 03:20:09;;;;;;;13.63;10.60;;;;;;;16.09;90.62;96558.39;127593;1093;24543;-83
2021/08/24 03:22:43;;;;;;;14.23;9.78;;;;;;;16.13;90.83;96553.98;127559;1093;32270;-82
2021/08/24 03:25:24;;;;;;;14.85;10.55;;;;;;;16.08;90.83;96554.94;127682;1093;22867;-83
2021/08/24 03:27:56;;;;;;;12.65;10.50;;;;;;;16.07;91.10;96547.23;127600;1093;27512;-83
2021/08/24 03:30:27;;;;;;;16.00;10.75;;;;;;;16.04;91.29;96554.75;127575;1093;23962;-83
2021/08/24 03:32:59;;;;;;;13.88;9.58;;;;;;;16.03;91.46;96547.83;127628;1093;23560;-83
2021/08/24 03:35:30;;;;;;;11.20;8.25;;;;;;;16.02;91.39;96556.96;127636;1093;26261;-83
2021/08/24 03:38:01;;;;;;;15.00;11.05;;;;;;;15.99;91.66;96559.48;127709;1093;27770;-84
2021/08/24 03:40:33;;;;;;;13.75;9.53;;;;;;;16.00;91.70;96563.73;127709;1093;27246;-83
2021/08/24 03:43:06;;;;;;;11.23;8.78;;;;;;;16.00;91.94;96563.73;127610;1093;24578;-83
2021/08/24 03:45:37;;;;;;;11.70;8.33;;;;;;;15.99;92.12;96565.61;127597;1092;27908;-83
2021/08/24 03:48:09;;;;;;;11.85;7.40;;;;;;;15.99;92.10;96565.61;127534;1093;27869;-83
2021/08/24 03:50:40;;;;;;;10.33;6.88;;;;;;;15.98;92.34;96569.39;127573;1093;29710;-83
2021/08/24 03:53:12;;;;;;;8.83;6.65;;;;;;;15.94;92.63;96575.69;127537;1093;32008;-84
2021/08/24 03:55:43;;;;;;;9.18;6.75;;;;;;;15.92;92.59;96578.67;127683;1091;22855;-84
2021/08/24 03:58:15;;;;;;;9.40;6.50;;;;;;;15.90;92.48;96572.05;127619;1093;28978;-84
2021/08/24 04:00:48;;;;;;;7.08;4.95;;;;;;;15.93;92.47;96577.58;127624;1093;23743;-83
2021/08/24 04:03:19;;;;;;;8.63;4.90;;;;;;;15.94;92.48;96579.15;127617;1093;28566;-84
2021/08/24 04:05:57;;;;;;;6.15;4.80;;;;;;;15.99;92.49;96578.98;127648;1093;25398;-84
2021/08/24 04:08:29;;;;;;;6.65;4.60;;;;;;;15.97;92.51;96586.54;127633;1093;24484;-84
2021/08/24 04:11:02;;;;;;;6.70;5.05;;;;;;;15.95;92.65;96585.28;127643;1093;25811;-84
2021/08/24 04:13:34;;;;;;;9.78;6.65;;;;;;;15.94;92.65;96587.17;127643;1093;25087;-83
2021/08/24 04:16:08;;;;;;;9.30;6.70;;;;;;;15.96;92.85;96589.53;127956;1093;26750;-83
2021/08/24 04:18:41;;;;;;;11.40;7.58;;;;;;;15.93;93.05;96593.62;127961;1092;25053;-84
2021/08/24 04:21:16;;;;;;;9.68;7.23;;;;;;;15.95;93.09;96599.44;127958;1093;27443;-84
2021/08/24 04:23:50;;;;;;;4.35;3.53;;;;;;;15.91;92.90;96606.52;127950;1093;36537;-84
2021/08/24 04:26:21;;;;;;;6.33;4.70;;;;;;;15.90;92.76;96610.27;127952;1093;25811;-84
2021/08/24 04:28:53;;;;;;;5.28;3.65;;;;;;;15.92;92.77;96616.11;127940;1093;24420;-83
2021/08/24 04:31:25;;;;;;;9.58;5.65;;;;;;;16.01;93.11;96608.88;127955;1093;23436;-84
2021/08/24 04:33:56;;;;;;;10.28;7.03;;;;;;;16.10;93.04;96611.56;127970;1093;28144;-83
2021/08/24 04:36:28;;;;;;;8.68;5.23;;;;;;;16.07;92.58;96619.44;127948;1093;23625;-85
2021/08/24 04:38:59;;;;;;;7.65;4.88;;;;;;;16.04;92.52;96624.28;128042;1093;24969;-84
2021/08/24 04:41:31;;;;;;;3.38;2.63;;;;;;;16.03;92.56;96630.73;128028;1092;24089;-83
2021/08/24 04:44:03;;;;;;;2.48;1.00;;;;;;;15.82;91.60;96623.63;128057;1093;26274;-83
2021/08/24 04:46:34;;;;;;;1.60;0.85;;;;;;;15.61;92.05;96629.53;127941;1092;23926;-82
2021/08/24 04:49:06;;;;;;;0.90;0.63;;;;;;;15.44;92.43;96626.77;127590;1093;23865;-84
2021/08/24 04:51:37;;;;;;;1.80;0.83;;;;;;;15.33;92.44;96623.58;127965;1093;28130;-84
2021/08/24 04:54:09;;;;;;;1.88;0.73;;;;;;;15.28;92.55;96620.27;127960;1093;23656;-83
2021/08/24 04:56:40;;;;;;;3.45;1.88;;;;;;;15.21;92.92;96612.70;128003;1093;24254;-83
2021/08/24 04:59:12;;;;;;;3.88;2.13;;;;;;;15.18;93.38;96613.30;127980;1093;30499;-85
2021/08/24 05:01:43;;;;;;;2.33;1.47;;;;;;;15.22;94.09;96618.84;127574;1093;27134;-84
2021/08/24 05:04:14;;;;;;;1.55;1.18;;;;;;;15.24;94.15;96620.09;127943;1093;32658;-82
2021/08/24 05:06:46;;;;;;;1.50;1.40;;;;;;;15.30;94.26;96621.53;128012;1093;23350;-84
2021/08/24 05:09:18;;;;;;;2.43;1.18;;;;;;;15.35;94.34;96634.77;127980;1093;27706;-83
2021/08/24 05:11:50;;;;;;;1.55;1.18;;;;;;;15.37;94.49;96632.57;127991;1093;31894;-84
2021/08/24 05:14:21;;;;;;;1.50;1.23;;;;;;;15.44;94.31;96624.09;127587;1093;25250;-82
2021/08/24 05:16:57;;;;;;;1.90;1.25;;;;;;;15.53;94.24;96630.27;127575;1092;28309;-84
2021/08/24 05:19:29;;;;;;;1.15;1.00;;;;;;;15.57;94.32;96631.22;127641;1093;28163;-84
2021/08/24 05:22:01;;;;;;;1.58;1.25;;;;;;;15.60;94.18;96630.63;127614;1093;25605;-82
2021/08/24 05:24:34;;;;;;;1.10;1.00;;;;;;;15.66;94.26;96633.97;127642;1093;25864;-83
2021/08/24 05:27:06;;;;;;;1.48;1.10;;;;;;;15.72;94.13;96640.73;127564;1093;25929;-82
2021/08/24 05:29:38;;;;;;;1.50;1.10;;;;;;;15.73;93.98;96644.98;127623;1093;22984;-82
2021/08/24 05:32:10;;;;;;;2.18;1.00;;;;;;;15.77;93.79;96640.61;127605;1093;22832;-83
2021/08/24 05:34:41;;;;;;;2.28;1.38;;;;;;;15.76;93.82;96643.56;127532;1093;77066;-83
2021/08/24 05:37:13;;;;;;;2.63;1.95;;;;;;;15.69;93.40;96646.70;127581;1093;24896;-83
2021/08/24 05:39:45;;;;;;;2.80;1.88;;;;;;;15.57;93.31;96635.78;127565;1093;24965;-83
2021/08/24 05:42:16;;;;;;;3.45;2.20;;;;;;;15.52;93.39;96642.06;127536;1093;26971;-83
2021/08/24 05:44:48;;;;;;;3.08;2.25;;;;;;;15.49;93.62;96634.67;127631;1093;26655;-82
2021/08/24 05:47:19;;;;;;;2.18;1.93;;;;;;;15.50;93.82;96633.56;127743;1093;24191;-83
2021/08/24 05:49:51;;;;;;;4.18;1.90;;;;;;;15.52;94.05;96636.72;127626;1093;23161;-83
2021/08/24 05:56:07;;;;;;;3.43;1.70;;;;;;;15.79;94.65;96638.41;127654;1093;33760;-83
2021/08/24 05:58:38;;;;;;;4.63;1.83;;;;;;;15.85;94.47;96652.41;127604;1092;25892;-83
2021/08/24 06:01:16;;;;;;;9.25;2.00;;;;;;;15.94;94.69;96650.55;127653;1093;23932;-83
2021/08/24 06:03:48;;;;;;;3.25;1.50;;;;;;;16.01;94.46;96653.54;127665;1092;23978;-83
2021/08/24 06:06:23;;;;;;;1.60;1.30;;;;;;;16.03;94.00;96654.80;127700;1093;26151;-83
2021/08/24 06:08:55;;;;;;;2.88;2.10;;;;;;;16.03;93.77;96659.36;127579;1093;26325;-84
2021/08/24 06:11:30;;;;;;;2.95;2.15;;;;;;;15.96;93.39;96651.81;127580;1092;28720;-83
2021/08/24 06:14:03;;;;;;;4.30;2.58;;;;;;;15.89;93.67;96659.48;127649;1093;25354;-83
2021/08/24 06:16:37;;;;;;;3.20;2.35;;;;;;;15.90;93.85;96666.41;127559;1093;25641;-83
2021/08/24 06:19:10;;;;;;;2.53;1.93;;;;;;;15.85;93.73;96658.54;127550;1093;25876;-83
2021/08/24 06:21:42;;;;;;;2.85;1.90;;;;;;;15.95;94.28;96663.61;127550;1092;23113;-83
2021/08/24 06:24:14;;;;;;;3.35;2.20;;;;;;;15.93;93.87;96663.14;127619;1093;25039;-83
2021/08/24 06:26:46;;;;;;;2.10;1.48;;;;;;;16.00;94.65;96665.34;127571;1093;22813;-83
2021/08/24 06:29:18;;;;;;;3.13;1.28;;;;;;;16.09;94.85;96660.02;127677;1093;35969;-83
2021/08/24 06:31:53;;;;;;;3.00;1.35;;;;;;;16.24;95.01;96659.57;127667;1093;23738;-84
2021/08/24 06:34:25;;;;;;;2.15;1.35;;;;;;;16.41;95.22;96659.58;127539;1093;26963;-83
2021/08/24 06:36:57;;;;;;;2.23;1.53;;;;;;;16.57;95.32;96657.22;127711;1093;23048;-84
2021/08/24 06:39:29;;;;;;;2.25;1.80;;;;;;;16.71;94.92;96665.12;127664;1091;26523;-83
2021/08/24 06:42:01;;;;;;;2.10;1.68;;;;;;;16.78;94.36;96666.23;127650;1093;27179;-82
2021/08/24 06:44:32;;;;;;;3.73;2.43;;;;;;;16.71;93.24;96668.58;127622;1093;22832;-83
2021/08/24 06:47:04;;;;;;;2.58;2.30;;;;;;;16.69;92.85;96670.00;127599;1093;24011;-85
2021/08/24 06:49:36;;;;;;;2.70;1.85;;;;;;;16.62;92.81;96665.90;127657;1093;24832;-82
2021/08/24 06:52:08;;;;;;;2.50;1.95;;;;;;;16.47;92.58;96669.05;127565;1093;23753;-83
2021/08/24 06:54:40;;;;;;;2.63;2.08;;;;;;;16.32;92.60;96666.80;127586;1093;25615;-83
2021/08/24 06:57:12;;;;;;;3.95;2.70;;;;;;;16.24;92.44;96672.95;127538;1093;31119;-84
2021/08/24 06:59:43;;;;;;;5.73;2.63;;;;;;;16.14;92.36;96670.56;127609;1093;27016;-83
2021/08/24 07:02:14;;;;;;;3.93;3.20;;;;;;;16.01;92.52;96674.94;127564;1093;25432;-82
2021/08/24 07:04:48;;;;;;;5.58;3.60;;;;;;;15.97;92.80;96680.13;127585;1093;24773;-84
2021/08/24 07:07:20;;;;;;;6.63;4.73;;;;;;;15.98;93.43;96684.38;127596;1093;26004;-83
2021/08/24 07:09:52;;;;;;;5.93;4.63;;;;;;;16.04;93.61;96672.42;127567;1093;26738;-84
2021/08/24 07:12:23;;;;;;;7.77;5.90;;;;;;;16.01;93.15;96678.39;127549;1093;26960;-83
2021/08/24 07:14:55;;;;;;;9.05;5.80;;;;;;;15.97;93.24;96682.02;127843;1093;23839;-83
2021/08/24 07:17:26;;;;;;;10.45;6.75;;;;;;;15.98;93.55;96676.34;127962;1093;23311;-84
2021/08/24 07:19:58;;;;;;;9.50;6.93;;;;;;;15.95;93.55;96685.00;127577;1092;24608;-83
2021/08/24 07:22:30;;;;;;;8.50;6.28;;;;;;;15.98;94.03;96688.93;128079;1092;25887;-84
2021/08/24 07:25:04;;;;;;;7.93;5.88;;;;;;;15.97;94.05;96690.03;128037;1091;23779;-83
2021/08/24 07:27:35;;;;;;;8.28;6.33;;;;;;;15.98;94.04;96691.61;127961;1093;26150;-82
2021/08/24 07:30:10;;;;;;;9.83;7.63;;;;;;;15.94;94.06;96693.33;127590;1092;26374;-83
2021/08/24 07:32:42;;;;;;;9.25;7.28;;;;;;;15.88;93.90;96684.65;127957;1093;26952;-84
2021/08/24 07:35:15;;;;;;;9.13;7.38;;;;;;;15.97;94.09;96687.36;127978;1092;26427;-83
2021/08/24 07:37:46;;;;;;;11.88;8.48;;;;;;;15.99;94.23;96687.83;127966;1093;35183;-84
2021/08/24 07:40:18;;;;;;;11.33;7.65;;;;;;;16.03;94.37;96697.59;127977;1093;22954;-84
2021/08/24 07:42:50;;;;;;;8.43;6.40;;;;;;;16.10;94.02;96699.03;127964;1093;24101;-83
2021/08/24 07:45:22;;;;;;;12.98;8.78;;;;;;;16.10;93.79;96699.03;127966;1093;33887;-83
2021/08/24 07:47:54;;;;;;;14.43;10.67;;;;;;;16.10;93.66;96697.14;127985;1093;24534;-84
2021/08/24 07:50:26;;;;;;;10.05;7.80;;;;;;;16.07;93.54;96710.36;127612;1093;24399;-83
2021/08/24 07:52:58;;;;;;;5.20;3.73;;;;;;;15.92;93.09;96696.32;127911;1093;36845;-83
2021/08/24 07:55:30;;;;;;;3.90;2.50;;;;;;;15.91;93.81;96707.33;127972;1093;26292;-83
2021/08/24 07:58:02;;;;;;;2.78;1.68;;;;;;;15.94;93.78;96707.48;128023;1093;29469;-84
2021/08/24 08:00:33;;;;;;;1.33;0.93;;;;;;;15.95;93.66;96717.08;128032;1093;26268;-83
2021/08/24 08:03:05;;;;;;;1.05;0.60;;;;;;;15.97;93.51;96725.58;127936;1093;25220;-83
2021/08/24 08:05:37;;;;;;;1.18;0.60;;;;;;;15.95;93.41;96721.64;127911;1091;25716;-84
2021/08/24 08:08:09;;;;;;;0.68;0.53;;;;;;;15.94;93.37;96728.09;127597;1093;24469;-84
2021/08/24 08:10:40;;;;;;;0.53;0.50;;;;;;;15.96;93.50;96739.27;128008;1093;24363;-83
2021/08/24 08:13:12;;;;;;;1.00;0.90;;;;;;;15.95;93.30;96743.82;127973;1092;24745;-83
2021/08/24 08:15:43;;;;;;;0.65;0.60;;;;;;;15.94;93.33;96742.25;127921;1093;24437;-83
2021/08/24 08:18:15;;;;;;;1.28;0.50;;;;;;;15.96;93.26;96734.70;127957;1093;23772;-83
2021/08/24 08:20:47;;;;;;;0.63;0.40;;;;;;;15.91;92.87;96742.08;127606;1093;24881;-83
2021/08/24 08:23:21;;;;;;;0.88;0.40;;;;;;;15.81;92.59;96745.81;127956;1093;26395;-83
2021/08/24 08:25:53;;;;;;;0.70;0.63;;;;;;;15.72;92.71;96748.43;127747;1092;24492;-84
2021/08/24 08:28:25;;;;;;;0.88;0.68;;;;;;;15.75;93.15;96755.05;127977;1093;22965;-83
2021/08/24 08:30:56;;;;;;;0.70;0.60;;;;;;;15.76;93.38;96755.83;127977;1093;30086;-83
2021/08/24 08:33:28;;;;;;;0.60;0.58;;;;;;;15.72;92.91;96759.13;127874;1093;25447;-83
2021/08/24 08:35:59;;;;;;;0.90;0.70;;;;;;;15.71;93.27;96759.43;128016;1093;24783;-83
2021/08/24 08:38:31;;;;;;;0.63;0.55;;;;;;;15.70;93.19;96758.64;127677;1093;27280;-84
2021/08/24 08:41:08;;;;;;;0.90;0.50;;;;;;;15.71;93.12;96764.78;128012;1093;24341;-83
2021/08/24 08:43:48;;;;;;;1.10;0.77;;;;;;;15.77;93.17;96768.91;127575;1093;26324;-83
2021/08/24 08:46:40;;;;;;;1.00;0.90;;;;;;;15.72;93.16;96777.05;127619;1093;32095;-84
2021/08/24 08:49:29;;;;;;;1.55;0.98;;;;;;;15.73;93.11;96774.06;127651;1093;24552;-83
2021/08/24 08:52:14;;;;;;;1.78;0.90;;;;;;;15.71;92.85;96786.16;128060;1092;24402;-83
2021/08/24 08:54:57;;;;;;;1.35;0.75;;;;;;;15.62;92.59;96782.64;127586;1093;27212;-83
2021/08/24 08:57:36;;;;;;;0.88;0.65;;;;;;;15.52;92.30;96789.02;127680;1091;28032;-83
2021/08/24 09:00:15;;;;;;;0.53;0.53;;;;;;;15.45;92.28;96800.12;127689;1091;25187;-83
2021/08/24 09:02:51;;;;;;;0.45;0.30;;;;;;;15.41;92.37;96801.83;127630;1092;24384;-85
2021/08/24 09:05:26;;;;;;;1.10;0.40;;;;;;;15.38;92.30;96799.77;127978;1093;26035;-83
2021/08/24 09:07:59;;;;;;;0.78;0.40;;;;;;;15.37;92.19;96806.21;127993;1093;24509;-82
2021/08/24 09:10:39;;;;;;;0.30;0.28;;;;;;;15.34;91.98;96811.34;127702;1093;26579;-83
2021/08/24 09:13:21;;;;;;;0.73;0.40;;;;;;;15.31;92.10;96817.30;127738;1092;22783;-83
2021/08/24 09:15:58;;;;;;;0.40;0.23;;;;;;;15.33;92.18;96817.78;127960;1093;24459;-84
2021/08/24 09:18:43;;;;;;;0.38;0.20;;;;;;;15.30;91.50;96813.84;127559;1093;26395;-83
2021/08/24 09:21:23;;;;;;;0.20;0.20;;;;;;;15.23;91.65;96823.39;127946;1093;23555;-83
2021/08/24 09:23:57;;;;;;;0.20;0.20;;;;;;;15.18;91.27;96818.14;127642;1092;26473;-83
2021/08/24 09:26:49;;;;;;;0.53;0.40;;;;;;;15.20;91.76;96839.99;127905;1093;26194;-83
2021/08/24 09:29:24;;;;;;;0.90;0.40;;;;;;;15.22;91.72;96833.28;127591;1093;28814;-83
2021/08/24 09:31:56;;;;;;;0.93;0.20;;;;;;;15.22;91.58;96837.84;127564;1093;28937;-84
2021/08/24 09:34:34;;;;;;;0.55;0.30;;;;;;;15.19;91.31;96833.08;127567;1093;25171;-83
2021/08/24 09:37:06;;;;;;;0.30;0.30;;;;;;;15.18;91.44;96839.51;127952;1093;28290;-82
2021/08/24 09:39:55;;;;;;;0.30;0.13;;;;;;;15.14;90.98;96842.00;127547;1093;36374;-82
2021/08/24 09:42:44;;;;;;;0.30;0.30;;;;;;;15.16;91.33;96839.81;127565;1093;24392;-84
2021/08/24 09:45:30;;;;;;;0.68;0.40;;;;;;;15.15;91.28;96841.70;127617;1093;24362;-83
2021/08/24 09:48:11;;;;;;;0.40;0.30;;;;;;;15.20;91.13;96842.66;127860;1093;22877;-82
2021/08/24 09:50:45;;;;;;;1.00;0.30;;;;;;;15.21;90.98;96842.39;127977;1093;27348;-83
2021/08/24 09:53:34;;;;;;;0.28;0.20;;;;;;;15.19;90.76;96849.89;127956;1093;74075;-83
2021/08/24 09:56:09;;;;;;;0.88;0.40;;;;;;;15.14;90.80;96856.14;127610;1093;26258;-82
2021/08/24 09:58:45;;;;;;;0.53;0.20;;;;;;;15.20;90.99;96856.83;127568;1093;31188;-83
2021/08/24 10:01:19;;;;;;;0.40;0.40;;;;;;;15.18;90.80;96864.33;128000;1093;24382;-83
2021/08/24 10:04:04;;;;;;;0.00;0.00;;;;;;;15.16;90.38;96866.52;127949;1093;27273;-83
2021/08/24 10:06:40;;;;;;;0.20;0.20;;;;;;;15.15;90.35;96859.59;127762;1093;24222;-84
2021/08/24 10:09:25;;;;;;;0.37;0.10;;;;;;;15.14;90.38;96863.36;127898;1093;29213;-83
2021/08/24 10:12:16;;;;;;;0.10;0.10;;;;;;;15.09;90.03;96866.16;127954;1093;28305;-83
2021/08/24 10:14:49;;;;;;;0.33;0.13;;;;;;;15.09;90.10;96866.95;128019;1093;28158;-84
2021/08/24 10:17:30;;;;;;;0.40;0.20;;;;;;;15.08;89.93;96876.05;127591;1092;31704;-83
2021/08/24 10:20:05;;;;;;;0.30;0.20;;;;;;;15.10;89.86;96875.74;127727;1093;25804;-82
2021/08/24 10:22:40;;;;;;;0.30;0.15;;;;;;;15.11;89.82;96870.09;127695;1093;23052;-82
2021/08/24 10:25:19;;;;;;;0.10;0.10;;;;;;;15.08;89.77;96867.25;127929;1093;24709;-83
2021/08/24 10:28:01;;;;;;;0.28;0.20;;;;;;;15.04;89.54;96882.27;127568;1093;27447;-83
2021/08/24 10:30:45;;;;;;;0.30;0.28;;;;;;;15.04;89.31;96890.27;127643;1091;26254;-83
2021/08/24 10:33:32;;;;;;;0.95;0.50;;;;;;;15.02;89.38;96903.14;127990;1093;23920;-83
2021/08/24 10:36:09;;;;;;;0.20;0.20;;;;;;;15.01;89.35;96896.22;128071;1093;23595;-83
2021/08/24 10:38:59;;;;;;;0.20;0.20;;;;;;;15.04;89.33;96892.95;127568;1093;25706;-83
2021/08/24 10:41:39;;;;;;;1.40;0.40;;;;;;;15.06;89.39;96898.77;128023;1092;26595;-83
2021/08/24 10:44:21;;;;;;;0.60;0.50;;;;;;;15.05;89.22;96897.98;127997;1093;25508;-83
2021/08/24 10:47:05;;;;;;;0.65;0.30;;;;;;;15.10;89.40;96905.12;127596;1093;23939;-83
2021/08/24 10:49:37;;;;;;;0.38;0.30;;;;;;;15.10;89.24;96910.45;127915;1093;31644;-83
2021/08/24 10:52:20;;;;;;;0.70;0.23;;;;;;;15.03;89.08;96910.06;127673;1093;26296;-83
2021/08/24 10:55:03;;;;;;;0.30;0.23;;;;;;;14.97;88.95;96921.95;127599;1093;23421;-83
2021/08/24 10:57:58;;;;;;;0.20;0.20;;;;;;;14.97;88.86;96919.27;127964;1093;27453;-82
2021/08/24 11:00:46;;;;;;;0.20;0.18;;;;;;;14.98;88.85;96918.97;127998;1092;28160;-83
2021/08/24 11:03:58;;;;;;;0.30;0.20;;;;;;;14.94;88.65;96927.89;127595;1092;26407;-83
2021/08/24 11:06:37;;;;;;;0.30;0.30;;;;;;;14.84;88.35;96926.20;127919;1093;29213;-83
2021/08/24 11:09:20;;;;;;;0.27;0.27;;;;;;;14.76;88.25;96938.34;127568;1093;34779;-83
2021/08/24 11:12:04;;;;;;;0.45;0.30;;;;;;;14.72;88.45;96925.91;127943;1093;24570;-83
2021/08/24 11:14:49;;;;;;;0.58;0.20;;;;;;;14.74;88.84;96937.06;127555;1092;27814;-83
2021/08/24 11:17:33;;;;;;;0.88;0.20;;;;;;;14.74;88.90;96940.52;127963;1093;28772;-84
2021/08/24 11:20:17;;;;;;;0.93;0.30;;;;;;;14.80;89.18;96943.91;127620;1093;25596;-83
2021/08/24 11:23:02;;;;;;;0.65;0.30;;;;;;;14.86;89.19;96945.38;127952;1092;25514;-83
2021/08/24 11:25:43;;;;;;;0.20;0.20;;;;;;;14.89;89.12;96943.98;127657;1093;52175;-83
2021/08/24 11:28:26;;;;;;;0.33;0.33;;;;;;;14.89;88.84;96957.33;127989;1093;23546;-83
2021/08/24 11:31:05;;;;;;;0.28;0.20;;;;;;;14.94;89.18;96954.58;127596;1093;43469;-84
2021/08/24 11:33:41;;;;;;;0.50;0.35;;;;;;;14.98;88.96;96955.56;127553;1093;24465;-83
2021/08/24 11:36:20;;;;;;;0.48;0.40;;;;;;;15.00;89.10;96961.39;127971;1093;24140;-83
2021/08/24 11:38:59;;;;;;;0.63;0.30;;;;;;;14.97;88.65;96960.11;127582;1093;23692;-84
2021/08/24 11:41:31;;;;;;;2.40;0.80;;;;;;;14.94;88.64;96966.05;127659;1093;33920;-83
2021/08/24 11:44:08;;;;;;;0.50;0.33;;;;;;;14.93;88.75;96964.47;127688;1092;23135;-83
2021/08/24 11:46:45;;;;;;;0.23;0.23;;;;;;;14.98;88.79;96968.91;127946;1093;29863;-83
2021/08/24 11:49:24;;;;;;;0.43;0.40;;;;;;;14.97;88.54;96973.46;127592;1093;26141;-83
2021/08/24 11:52:03;;;;;;;0.40;0.35;;;;;;;14.96;88.51;96979.10;127609;1093;24691;-83
2021/08/24 11:54:48;;;;;;;1.23;1.00;;;;;;;14.97;88.59;96996.70;127667;1093;22962;-84
2021/08/24 11:57:28;;;;;;;2.20;1.63;;;;;;;14.95;88.39;96988.98;127962;1093;24267;-83
2021/08/24 12:00:00;;;;;;;0.87;0.70;;;;;;;14.87;88.10;96997.67;128035;1093;25445;-83
2021/08/24 12:02:38;;;;;;;1.28;0.83;;;;;;;14.71;87.79;96999.05;128005;1091;30307;-83
2021/08/24 12:05:20;;;;;;;0.75;0.53;;;;;;;14.63;87.85;97010.39;127614;1093;25121;-83
2021/08/24 12:08:01;;;;;;;1.15;0.78;;;;;;;14.62;88.22;97012.27;127979;1093;22826;-84